createdAt,value
2023-02-15T00:02:11.106Z,38.28
2023-02-15T00:04:51.185Z,41.72
2023-02-15T00:07:21.087Z,40.53
2023-02-15T00:09:49.314Z,46.20
2023-02-15T00:12:18.281Z,43.38
2023-02-15T00:14:47.578Z,42.03
2023-02-15T00:17:15.743Z,36.85
2023-02-15T00:19:43.974Z,41.75
2023-02-15T00:22:11.948Z,46.53
2023-02-15T00:24:39.937Z,42.60
2023-02-15T00:27:13.460Z,38.88
2023-02-15T00:29:41.342Z,42.65
2023-02-15T00:32:10.588Z,44.63
2023-02-15T00:34:38.484Z,49.42
2023-02-15T00:37:06.381Z,45.72
2023-02-15T00:39:34.306Z,42.42
2023-02-15T00:42:02.290Z,46.47
2023-02-15T00:44:30.295Z,41.58
2023-02-15T00:46:58.230Z,49.20
2023-02-15T00:49:27.577Z,43.97
2023-02-15T00:51:55.472Z,42.58
2023-02-15T00:54:23.371Z,43.00
2023-02-15T00:56:51.559Z,49.22
2023-02-15T00:59:19.450Z,43.75
2023-02-15T01:01:49.401Z,45.50
2023-02-15T01:04:17.398Z,48.03
2023-02-15T01:06:46.691Z,44.35
2023-02-15T01:09:14.872Z,42.70
2023-02-15T01:11:42.776Z,49.15
2023-02-15T01:14:10.652Z,43.20
2023-02-15T01:16:40.272Z,45.00
2023-02-15T01:19:08.263Z,46.35
2023-02-15T01:21:36.599Z,50.58
2023-02-15T01:24:06.133Z,46.20
2023-02-15T01:26:34.007Z,49.33
2023-02-15T01:29:02.138Z,46.53
2023-02-15T01:31:30.103Z,48.80
2023-02-15T01:33:58.133Z,48.83
2023-02-15T01:36:26.021Z,46.25
2023-02-15T01:38:53.901Z,42.05
2023-02-15T01:41:23.908Z,47.75
2023-02-15T01:43:54.577Z,49.88
2023-02-15T01:46:26.811Z,49.58
2023-02-15T01:48:58.840Z,49.75
2023-02-15T01:51:29.757Z,47.47
2023-02-15T01:54:03.494Z,51.20
2023-02-15T01:56:36.814Z,46.47
2023-02-15T01:59:09.887Z,52.63
2023-02-15T02:01:37.944Z,51.28
2023-02-15T02:04:13.865Z,58.22
2023-02-15T02:06:42.199Z,49.65
2023-02-15T02:09:11.258Z,51.08
2023-02-15T02:11:42.392Z,53.05
2023-02-15T02:14:14.630Z,57.83
2023-02-15T02:16:50.331Z,51.20
2023-02-15T02:19:53.334Z,51.45
2023-02-15T02:23:00.736Z,54.03
2023-02-15T02:26:17.825Z,63.10
2023-02-15T02:29:24.499Z,57.47
2023-02-15T02:32:21.479Z,61.03
2023-02-15T02:34:57.532Z,63.60
2023-02-15T02:37:32.956Z,56.22
2023-02-15T02:40:10.161Z,56.60
2023-02-15T02:42:41.676Z,65.30
2023-02-15T02:45:12.485Z,58.33
2023-02-15T02:47:45.986Z,62.95
2023-02-15T02:50:20.139Z,64.32
2023-02-15T02:52:49.575Z,68.50
2023-02-15T02:55:23.333Z,66.72
2023-02-15T03:00:25.702Z,65.93
2023-02-15T03:02:59.341Z,73.03
2023-02-15T03:05:31.620Z,71.93
2023-02-15T03:08:02.173Z,65.35
2023-02-15T03:10:31.601Z,80.60
2023-02-15T03:12:59.643Z,82.40
2023-02-15T03:15:52.536Z,86.60
2023-02-15T03:18:27.509Z,89.33
2023-02-15T03:20:58.620Z,76.20
2023-02-15T03:23:30.013Z,83.72
2023-02-15T03:26:03.861Z,83.18
2023-02-15T03:28:38.627Z,79.57
2023-02-15T03:31:09.322Z,85.50
2023-02-15T03:33:42.950Z,77.38
2023-02-15T03:36:20.846Z,73.57
2023-02-15T03:38:53.932Z,78.43
2023-02-15T03:41:26.141Z,75.45
2023-02-15T03:43:58.307Z,60.50
2023-02-15T03:46:30.516Z,74.53
2023-02-15T03:49:04.025Z,79.53
2023-02-15T03:51:39.158Z,78.78
2023-02-15T03:54:10.887Z,81.03
2023-02-15T03:56:41.158Z,78.70
2023-02-15T03:59:26.583Z,76.95
2023-02-15T04:02:07.723Z,80.90
2023-02-15T04:04:37.843Z,75.43
2023-02-15T04:07:08.523Z,75.85
2023-02-15T04:09:54.188Z,75.75
2023-02-15T04:12:22.520Z,81.85
2023-02-15T04:15:08.018Z,79.88
2023-02-15T04:17:37.888Z,68.47
2023-02-15T04:20:24.127Z,86.18
2023-02-15T04:23:10.775Z,82.85
2023-02-15T04:25:38.709Z,82.68
2023-02-15T04:28:08.541Z,78.03
2023-02-15T04:30:36.475Z,79.53
2023-02-15T04:33:04.492Z,83.22
2023-02-15T04:35:32.629Z,75.20
2023-02-15T04:38:01.983Z,80.93
2023-02-15T04:40:30.567Z,78.40
2023-02-15T04:42:58.457Z,82.43
2023-02-15T04:45:26.365Z,76.78
2023-02-15T04:47:54.243Z,81.00
2023-02-15T04:50:22.083Z,78.85
2023-02-15T04:52:50.089Z,75.22
2023-02-15T04:55:19.394Z,74.60
2023-02-15T04:57:48.094Z,73.90
2023-02-15T05:00:16.489Z,81.50
2023-02-15T05:02:44.334Z,78.03
2023-02-15T05:05:13.992Z,81.90
2023-02-15T05:07:42.055Z,74.13
2023-02-15T05:10:10.994Z,85.05
2023-02-15T05:12:40.216Z,79.43
2023-02-15T05:15:08.659Z,82.30
2023-02-15T05:17:36.659Z,73.50
2023-02-15T05:20:05.042Z,86.43
2023-02-15T05:22:32.937Z,77.82
2023-02-15T05:25:17.592Z,70.63
2023-02-15T05:28:05.324Z,77.45
2023-02-15T05:30:33.525Z,78.32
2023-02-15T05:33:01.566Z,77.30
2023-02-15T05:35:29.397Z,74.10
2023-02-15T05:37:57.254Z,81.32
2023-02-15T05:40:25.128Z,79.43
2023-02-15T05:42:54.419Z,76.32
2023-02-15T05:45:22.300Z,80.50
2023-02-15T05:47:50.141Z,82.40
2023-02-15T05:50:18.407Z,77.50
2023-02-15T05:52:48.093Z,87.13
2023-02-15T05:55:16.023Z,83.65
2023-02-15T05:57:43.926Z,77.10
2023-02-15T06:00:14.832Z,80.47
2023-02-15T06:02:43.067Z,77.85
2023-02-15T06:05:10.992Z,88.93
2023-02-15T06:07:38.859Z,84.90
2023-02-15T06:10:08.259Z,91.22
2023-02-15T06:12:36.089Z,85.95
2023-02-15T06:15:03.998Z,85.25
2023-02-15T06:17:33.829Z,89.45
2023-02-15T06:20:01.795Z,86.35
2023-02-15T06:22:29.648Z,77.95
2023-02-15T06:24:57.515Z,91.03
2023-02-15T06:27:25.510Z,84.90
2023-02-15T06:29:53.426Z,98.90
2023-02-15T06:32:21.282Z,86.55
2023-02-15T06:34:50.559Z,106.65
2023-02-15T06:37:18.437Z,93.28
2023-02-15T06:39:46.333Z,96.63
2023-02-15T06:42:14.184Z,88.63
2023-02-15T06:44:42.208Z,92.53
2023-02-15T06:47:10.041Z,100.20
2023-02-15T06:49:37.924Z,77.95
2023-02-15T06:52:07.548Z,99.65
2023-02-15T06:54:35.429Z,105.55
2023-02-15T06:57:03.531Z,92.70
2023-02-15T06:59:31.411Z,116.93
2023-02-15T07:01:59.807Z,77.20
2023-02-15T07:04:29.611Z,95.45
2023-02-15T07:06:57.897Z,91.20
2023-02-15T07:09:27.469Z,95.57
2023-02-15T07:12:12.795Z,108.03
2023-02-15T07:14:41.533Z,96.53
2023-02-15T07:17:27.480Z,81.55
2023-02-15T07:19:57.270Z,80.10
2023-02-15T07:22:25.140Z,84.47
2023-02-15T07:24:55.743Z,79.78
2023-02-15T07:27:23.741Z,72.03
2023-02-15T07:29:51.710Z,93.63
2023-02-15T07:32:19.763Z,73.15
2023-02-15T07:34:47.720Z,91.63
2023-02-15T07:37:15.698Z,89.43
2023-02-15T07:39:43.671Z,69.47
2023-02-15T07:42:12.917Z,86.05
2023-02-15T07:44:41.482Z,72.18
2023-02-15T07:47:09.480Z,83.47
2023-02-15T07:49:37.479Z,81.57
2023-02-15T07:52:05.600Z,73.30
2023-02-15T07:54:33.475Z,67.50
2023-02-15T07:57:02.655Z,84.05
2023-02-15T07:59:32.250Z,83.22
2023-02-15T08:02:00.160Z,76.18
2023-02-15T08:04:28.116Z,77.72
2023-02-15T08:06:56.386Z,78.57
2023-02-15T08:09:24.530Z,71.45
2023-02-15T08:11:52.334Z,76.00
2023-02-15T08:14:21.510Z,80.75
2023-02-15T08:16:53.182Z,87.90
2023-02-15T08:19:23.524Z,80.57
2023-02-15T08:21:54.401Z,83.22
2023-02-15T08:24:23.979Z,68.95
2023-02-15T08:26:52.625Z,66.15
2023-02-15T08:29:23.399Z,65.35
2023-02-15T08:31:55.528Z,69.47
2023-02-15T08:34:23.551Z,78.70
2023-02-15T08:36:51.924Z,64.55
2023-02-15T08:39:19.787Z,80.93
2023-02-15T08:41:49.415Z,67.70
2023-02-15T08:44:19.140Z,62.78
2023-02-15T08:46:48.806Z,65.65
2023-02-15T08:49:20.199Z,69.88
2023-02-15T08:51:49.323Z,63.33
2023-02-15T08:54:19.464Z,69.13
2023-02-15T08:56:48.107Z,62.38
2023-02-15T08:59:18.695Z,59.92
2023-02-15T09:01:47.692Z,55.42
2023-02-15T09:04:16.822Z,64.85
2023-02-15T09:06:49.385Z,62.90
2023-02-15T09:09:17.976Z,65.10
2023-02-15T09:11:47.677Z,66.78
2023-02-15T09:14:17.497Z,57.45
2023-02-15T09:16:49.650Z,67.03
2023-02-15T09:19:18.501Z,59.13
2023-02-15T09:21:48.314Z,64.20
2023-02-15T09:24:17.881Z,61.53
2023-02-15T09:26:49.445Z,63.53
2023-02-15T09:29:18.996Z,58.55
2023-02-15T09:31:49.749Z,58.83
2023-02-15T09:34:19.917Z,62.03
2023-02-15T09:36:49.524Z,68.07
2023-02-15T09:39:19.475Z,58.90
2023-02-15T09:42:18.612Z,59.47
2023-02-15T09:45:08.127Z,58.38
2023-02-15T09:47:49.205Z,54.55
2023-02-15T09:50:27.831Z,58.15
2023-02-15T09:53:10.667Z,55.58
2023-02-15T09:55:51.060Z,49.95
2023-02-15T09:58:27.590Z,50.90
2023-02-15T10:01:04.650Z,59.30
2023-02-15T10:03:49.552Z,59.67
2023-02-15T10:06:34.800Z,49.13
2023-02-15T10:09:20.021Z,55.58
2023-02-15T10:12:12.670Z,51.33
2023-02-15T10:14:59.558Z,48.70
2023-02-15T10:17:39.793Z,54.13
2023-02-15T10:20:20.218Z,50.15
2023-02-15T10:23:07.387Z,50.10
2023-02-15T10:25:48.427Z,48.28
2023-02-15T10:28:19.733Z,46.50
2023-02-15T10:30:50.287Z,51.75
2023-02-15T10:33:33.126Z,43.03
2023-02-15T10:36:23.088Z,41.00
2023-02-15T10:38:58.624Z,50.40
2023-02-15T10:41:39.162Z,41.53
2023-02-15T10:44:23.390Z,43.28
2023-02-15T10:47:07.629Z,44.10
2023-02-15T10:49:54.052Z,47.17
2023-02-15T10:52:31.520Z,44.50
2023-02-15T10:55:09.969Z,46.53
2023-02-15T10:57:48.907Z,50.42
2023-02-15T11:00:21.560Z,43.97
2023-02-15T11:03:08.334Z,40.10
2023-02-15T11:05:50.109Z,46.25
2023-02-15T11:08:18.613Z,42.78
2023-02-15T11:10:52.528Z,46.63
2023-02-15T11:13:24.814Z,40.35
2023-02-15T11:15:56.094Z,43.53
2023-02-15T11:18:30.151Z,46.70
2023-02-15T11:21:01.984Z,38.80
2023-02-15T11:23:30.898Z,40.67
2023-02-15T11:26:01.113Z,44.20
2023-02-15T11:28:35.224Z,47.25
2023-02-15T11:31:14.963Z,41.90
2023-02-15T11:33:48.546Z,40.75
2023-02-15T11:36:19.772Z,43.65
2023-02-15T11:38:51.198Z,43.72
2023-02-15T11:41:25.157Z,43.38
2023-02-15T11:43:58.673Z,42.75
2023-02-15T11:46:27.043Z,47.08
2023-02-15T11:48:55.105Z,42.03
2023-02-15T11:51:25.024Z,40.75
2023-02-15T11:53:53.740Z,40.00
2023-02-15T11:56:24.416Z,42.03
2023-02-15T11:58:59.116Z,39.97
2023-02-15T12:01:32.893Z,38.47
2023-02-15T12:04:04.408Z,42.58
2023-02-15T12:06:35.689Z,37.95
2023-02-15T12:09:08.691Z,35.08
2023-02-15T12:11:39.199Z,34.60
2023-02-15T12:14:10.601Z,32.67
2023-02-15T12:16:44.889Z,33.20
2023-02-15T12:19:32.120Z,36.72
2023-02-15T12:22:01.909Z,37.30
2023-02-15T12:24:32.732Z,36.30
2023-02-15T12:27:04.776Z,32.67
2023-02-15T12:29:44.073Z,34.80
2023-02-15T12:32:19.231Z,36.25
2023-02-15T12:34:48.589Z,30.55
2023-02-15T12:37:19.543Z,36.58
2023-02-15T12:39:57.087Z,34.63
2023-02-15T12:42:26.207Z,32.72
2023-02-15T12:45:01.970Z,30.10
2023-02-15T12:47:31.870Z,33.40
2023-02-15T12:50:12.632Z,30.30
2023-02-15T12:52:41.062Z,28.88
2023-02-15T12:55:20.696Z,25.27
2023-02-15T12:57:49.060Z,31.40
2023-02-15T13:00:32.730Z,29.33
2023-02-15T13:03:02.721Z,40.15
2023-02-15T13:05:35.936Z,35.90
2023-02-15T13:08:12.044Z,36.72
2023-02-15T13:10:44.354Z,39.50
2023-02-15T13:13:13.820Z,37.97
2023-02-15T13:15:46.396Z,35.60
2023-02-15T13:18:18.255Z,37.00
2023-02-15T13:20:47.129Z,37.35
2023-02-15T13:23:30.984Z,41.90
2023-02-15T13:26:01.823Z,39.00
2023-02-15T13:28:40.666Z,38.90
2023-02-15T13:31:15.251Z,38.17
2023-02-15T13:33:46.617Z,39.55
2023-02-15T13:36:23.197Z,37.10
2023-02-15T13:39:17.728Z,41.63
2023-02-15T13:41:58.501Z,35.63
2023-02-15T13:44:42.499Z,41.05
2023-02-15T13:47:24.061Z,40.45
2023-02-15T13:50:07.772Z,36.28
2023-02-15T13:52:42.660Z,38.28
2023-02-15T13:55:28.579Z,30.60
2023-02-15T13:58:31.165Z,41.10
2023-02-15T14:01:09.540Z,31.60
2023-02-15T14:04:03.153Z,39.65
2023-02-15T14:06:53.031Z,31.10
2023-02-15T14:09:33.068Z,25.77
2023-02-15T14:12:22.897Z,28.23
2023-02-15T14:15:08.837Z,29.08
2023-02-15T14:17:49.694Z,32.28
2023-02-15T14:20:24.005Z,23.80
2023-02-15T14:23:03.760Z,23.75
2023-02-15T14:25:38.656Z,34.88
2023-02-15T14:28:12.545Z,26.52
2023-02-15T14:30:43.906Z,23.83
2023-02-15T14:33:33.198Z,25.63
2023-02-15T14:36:07.270Z,26.70
2023-02-15T14:38:58.538Z,24.17
2023-02-15T14:41:33.676Z,24.38
2023-02-15T14:44:09.359Z,27.25
2023-02-15T14:46:44.988Z,26.95
2023-02-15T14:49:15.009Z,23.05
2023-02-15T14:52:06.307Z,26.10
2023-02-15T14:55:01.830Z,28.55
2023-02-15T14:57:36.338Z,23.58
2023-02-15T15:00:39.011Z,27.88
2023-02-15T15:03:20.429Z,32.42
2023-02-15T15:05:53.026Z,30.17
2023-02-15T15:08:31.359Z,35.07
2023-02-15T15:11:42.083Z,26.83
2023-02-15T15:14:32.945Z,32.30
2023-02-15T15:17:01.723Z,26.65
2023-02-15T15:20:05.092Z,30.38
2023-02-15T15:22:34.532Z,26.77
2023-02-15T15:25:03.711Z,30.27
2023-02-15T15:27:44.050Z,24.85
2023-02-15T15:31:00.697Z,31.08
2023-02-15T15:34:05.516Z,29.10
2023-02-15T15:37:21.703Z,23.67
2023-02-15T15:40:26.875Z,23.40
2023-02-15T15:43:20.454Z,28.90
2023-02-15T15:46:13.227Z,20.00
2023-02-15T15:48:43.199Z,22.20
2023-02-15T15:51:20.094Z,20.35
2023-02-15T15:53:53.936Z,21.58
2023-02-15T15:56:25.561Z,28.13
2023-02-15T15:58:56.566Z,28.05
2023-02-15T16:01:29.514Z,25.80
2023-02-15T16:03:59.577Z,28.45
2023-02-15T16:06:35.684Z,35.92
2023-02-15T16:09:19.398Z,31.30
2023-02-15T16:11:50.009Z,32.60
2023-02-15T16:14:23.541Z,29.70
2023-02-15T16:16:54.448Z,22.80
2023-02-15T16:19:29.182Z,25.48
2023-02-15T16:22:02.686Z,27.45
2023-02-15T16:24:53.060Z,23.20
2023-02-15T16:27:38.591Z,29.95
2023-02-15T16:30:24.072Z,32.63
2023-02-15T16:32:55.341Z,31.10
2023-02-15T16:35:24.450Z,35.33
2023-02-15T16:37:53.743Z,31.50
2023-02-15T16:40:45.292Z,25.73
2023-02-15T16:43:18.787Z,30.83
2023-02-15T16:45:48.217Z,33.58
2023-02-15T16:48:22.158Z,29.80
2023-02-15T16:50:53.890Z,29.98
2023-02-15T16:53:26.176Z,33.72
2023-02-15T16:55:57.123Z,25.70
2023-02-15T16:58:30.967Z,30.77
2023-02-15T17:01:01.718Z,26.58
2023-02-15T17:03:30.846Z,30.92
2023-02-15T17:06:01.027Z,33.45
2023-02-15T17:08:33.635Z,31.25
2023-02-15T17:11:17.205Z,28.00
2023-02-15T17:16:34.213Z,37.53
2023-02-15T17:19:03.881Z,29.40
2023-02-15T17:21:35.817Z,29.25
2023-02-15T17:24:06.141Z,32.58
2023-02-15T17:26:36.219Z,29.13
2023-02-15T17:29:14.436Z,35.00
2023-02-15T17:31:42.866Z,28.52
2023-02-15T17:34:44.853Z,34.90
2023-02-15T17:37:14.711Z,31.98
2023-02-15T17:39:43.996Z,28.55
2023-02-15T17:42:11.911Z,33.40
2023-02-15T17:44:39.777Z,25.17
2023-02-15T17:47:07.957Z,28.65
2023-02-15T17:49:37.994Z,28.80
2023-02-15T17:52:06.346Z,31.55
2023-02-15T17:54:48.140Z,32.40
2023-02-15T17:57:18.100Z,31.10
2023-02-15T18:00:03.715Z,33.33
2023-02-15T18:02:58.327Z,38.92
2023-02-15T18:05:43.812Z,29.75
2023-02-15T18:08:32.061Z,28.60
2023-02-15T18:11:19.173Z,27.52
2023-02-15T18:13:48.581Z,27.05
2023-02-15T18:16:18.232Z,32.67
2023-02-15T18:18:46.714Z,29.60
2023-02-15T18:21:14.873Z,34.38
2023-02-15T18:23:43.176Z,29.08
2023-02-15T18:26:19.668Z,33.50
2023-02-15T18:28:49.068Z,33.17
2023-02-15T18:31:17.323Z,33.95
2023-02-15T18:33:48.334Z,36.58
2023-02-15T18:36:22.060Z,40.85
2023-02-15T18:38:50.643Z,35.65
2023-02-15T18:41:20.339Z,31.02
2023-02-15T18:43:50.266Z,32.95
2023-02-15T18:46:18.726Z,33.78
2023-02-15T18:48:47.343Z,26.48
2023-02-15T18:51:18.710Z,31.55
2023-02-15T18:53:48.071Z,31.92
2023-02-15T18:56:21.211Z,34.05
2023-02-15T18:58:50.706Z,39.65
2023-02-15T19:01:20.957Z,33.78
2023-02-15T19:03:50.045Z,28.95
2023-02-15T19:06:20.237Z,30.00
2023-02-15T19:08:50.333Z,32.72
2023-02-15T19:11:23.062Z,33.97
2023-02-15T19:13:53.682Z,25.55
2023-02-15T19:16:31.617Z,27.95
2023-02-15T19:18:59.869Z,31.10
2023-02-15T19:21:29.377Z,35.45
2023-02-15T19:24:00.132Z,29.25
2023-02-15T19:26:44.447Z,33.83
2023-02-15T19:29:17.867Z,40.13
2023-02-15T19:31:45.829Z,35.53
2023-02-15T19:34:16.659Z,33.50
2023-02-15T19:36:45.863Z,34.33
2023-02-15T19:39:24.349Z,45.33
2023-02-15T19:41:52.954Z,36.65
2023-02-15T19:44:23.043Z,44.40
2023-02-15T19:46:50.972Z,43.45
2023-02-15T19:49:18.855Z,41.83
2023-02-15T19:51:47.561Z,33.78
2023-02-15T19:54:24.128Z,39.45
2023-02-15T19:56:51.956Z,39.00
2023-02-15T19:59:25.938Z,35.28
2023-02-15T20:01:54.392Z,36.40
2023-02-15T20:04:22.626Z,36.60
2023-02-15T20:06:52.051Z,34.97
2023-02-15T20:09:25.578Z,32.88
2023-02-15T20:11:54.147Z,43.33
2023-02-15T20:14:24.154Z,42.70
2023-02-15T20:16:52.525Z,36.90
2023-02-15T20:19:20.463Z,35.38
2023-02-15T20:21:54.399Z,36.70
2023-02-15T20:24:23.571Z,38.08
2023-02-15T20:26:51.442Z,43.45
2023-02-15T20:29:20.293Z,39.53
2023-02-15T20:31:49.705Z,38.75
2023-02-15T20:34:17.672Z,42.08
2023-02-15T20:36:45.550Z,45.70
2023-02-15T20:39:16.500Z,38.30
2023-02-15T20:41:48.204Z,37.65
2023-02-15T20:44:20.588Z,41.38
2023-02-15T20:46:50.945Z,45.10
2023-02-15T20:49:19.176Z,44.97
2023-02-15T20:51:48.076Z,38.08
2023-02-15T20:54:18.853Z,44.10
2023-02-15T20:56:47.404Z,42.28
2023-02-15T20:59:25.174Z,48.00
2023-02-15T21:01:58.816Z,45.15
2023-02-15T21:04:31.364Z,41.65
2023-02-15T21:06:59.388Z,40.88
2023-02-15T21:09:27.529Z,47.63
2023-02-15T21:11:57.386Z,42.42
2023-02-15T21:14:28.097Z,48.92
2023-02-15T21:16:57.370Z,42.92
2023-02-15T21:19:25.723Z,43.92
2023-02-15T21:21:54.313Z,41.00
2023-02-15T21:24:25.659Z,40.90
2023-02-15T21:26:54.987Z,44.47
2023-02-15T21:29:26.372Z,46.25
2023-02-15T21:31:54.406Z,44.90
2023-02-15T21:34:24.107Z,43.33
2023-02-15T21:36:51.951Z,40.30
2023-02-15T21:39:22.191Z,41.72
2023-02-15T21:42:09.549Z,46.72
2023-02-15T21:44:55.493Z,35.92
2023-02-15T21:47:48.329Z,46.25
2023-02-15T21:50:37.109Z,39.90
2023-02-15T21:53:06.582Z,42.67
2023-02-15T21:55:34.742Z,37.33
2023-02-15T21:58:03.086Z,43.20
2023-02-15T22:00:31.885Z,42.35
2023-02-15T22:03:01.871Z,49.20
2023-02-15T22:05:33.144Z,40.90
2023-02-15T22:08:01.400Z,39.55
2023-02-15T22:10:32.228Z,41.92
2023-02-15T22:13:01.966Z,37.08
2023-02-15T22:15:35.257Z,38.53
2023-02-15T22:18:03.824Z,40.80
2023-02-15T22:20:33.205Z,37.17
2023-02-15T22:23:01.198Z,45.65
2023-02-15T22:25:29.157Z,37.85
2023-02-15T22:27:57.217Z,39.72
2023-02-15T22:30:27.693Z,38.53
2023-02-15T22:32:56.972Z,38.72
2023-02-15T22:35:27.681Z,40.55
2023-02-15T22:37:57.284Z,38.35
2023-02-15T22:40:30.524Z,42.00
2023-02-15T22:45:29.149Z,38.88
2023-02-15T22:48:00.425Z,37.70
2023-02-15T22:50:30.859Z,37.58
2023-02-15T22:53:02.663Z,40.15
2023-02-15T22:55:33.916Z,42.05
2023-02-15T22:58:02.330Z,38.80
2023-02-15T23:00:33.609Z,37.33
2023-02-15T23:03:02.280Z,35.00
2023-02-15T23:05:32.074Z,36.15
2023-02-15T23:08:01.394Z,39.83
2023-02-15T23:10:30.532Z,38.58
2023-02-15T23:13:17.972Z,38.95
2023-02-15T23:15:48.815Z,37.75
2023-02-15T23:18:19.980Z,35.55
2023-02-15T23:20:50.579Z,46.03
2023-02-15T23:23:25.602Z,38.63
2023-02-15T23:25:53.527Z,32.13
2023-02-15T23:28:25.460Z,35.63
2023-02-15T23:30:53.710Z,34.70
2023-02-15T23:33:23.632Z,35.70
2023-02-15T23:35:52.153Z,33.95
2023-02-15T23:38:26.356Z,43.72
2023-02-15T23:41:14.978Z,32.88
2023-02-15T23:43:44.942Z,33.47
2023-02-15T23:46:23.694Z,29.45
2023-02-15T23:48:52.903Z,30.63
2023-02-15T23:51:21.892Z,29.27
2023-02-15T23:53:51.161Z,37.45
2023-02-15T23:56:19.051Z,34.95
2023-02-15T23:58:47.784Z,34.42
